Time;durP1;ratioP1;P1;durP2;ratioP2;P2;SDS_P1;SDS_P2;PMS_P1;PMS_P2;Temp;Humidity;BMP_temperature;BMP_pressure;BME280_temperature;BME280_humidity;BME280_pressure;Samples;Min_cycle;Max_cycle;Signal;HPM_P1;HPM_P2
2023/02/09 00:01:00;;;;;;;4.22;2.75;;;;;;;;;;5040531;28;20056;-79
2023/02/09 00:03:26;;;;;;;5.05;3.00;;;;;;;;;;5034090;28;20029;-79
2023/02/09 00:05:52;;;;;;;6.25;3.30;;;;;;;;;;5039243;28;20338;-80
2023/02/09 00:08:18;;;;;;;7.70;3.67;;;;;;;;;;5044433;28;20017;-80
2023/02/09 00:10:44;;;;;;;6.30;3.20;;;;;;;;;;5038640;28;20048;-80
2023/02/09 00:13:23;;;;;;;8.57;3.75;;;;;;;;;;5045366;28;20032;-79
2023/02/09 00:15:53;;;;;;;5.38;3.38;;;;;;;;;;5043268;28;20056;-80
2023/02/09 00:18:19;;;;;;;5.20;3.00;;;;;;;;;;5038260;28;20116;-80
2023/02/09 00:20:46;;;;;;;5.93;3.08;;;;;;;;;;5032721;28;20030;-79
2023/02/09 00:23:12;;;;;;;4.90;2.70;;;;;;;;;;5042029;28;20071;-80
2023/02/09 00:25:38;;;;;;;5.05;2.28;;;;;;;;;;5047092;28;20060;-81
2023/02/09 00:28:05;;;;;;;5.70;2.78;;;;;;;;;;5037501;28;20029;-80
2023/02/09 00:30:31;;;;;;;8.90;3.20;;;;;;;;;;5040123;28;20029;-80
2023/02/09 00:32:57;;;;;;;6.95;2.80;;;;;;;;;;5042264;28;20026;-80
2023/02/09 00:35:23;;;;;;;5.63;3.20;;;;;;;;;;5040435;28;20098;-80
2023/02/09 00:37:49;;;;;;;6.50;2.88;;;;;;;;;;5032776;28;20025;-80
2023/02/09 00:40:15;;;;;;;13.05;3.50;;;;;;;;;;5037657;28;20034;-80
2023/02/09 00:42:40;;;;;;;7.97;3.20;;;;;;;;;;5033733;28;20057;-80
2023/02/09 00:45:07;;;;;;;7.25;3.13;;;;;;;;;;5028483;28;20044;-80
2023/02/09 00:47:33;;;;;;;5.82;3.00;;;;;;;;;;5047325;28;20514;-79
2023/02/09 00:49:59;;;;;;;6.47;3.10;;;;;;;;;;5046182;28;20037;-79
2023/02/09 00:52:24;;;;;;;5.78;2.92;;;;;;;;;;5045134;28;20253;-80
2023/02/09 00:54:50;;;;;;;4.88;2.70;;;;;;;;;;5036621;28;20033;-79
2023/02/09 00:57:16;;;;;;;4.68;2.78;;;;;;;;;;5044486;28;20031;-80
2023/02/09 00:59:42;;;;;;;6.25;2.65;;;;;;;;;;5039097;28;20034;-79
2023/02/09 01:02:08;;;;;;;5.25;2.63;;;;;;;;;;5030648;28;20055;-80
2023/02/09 01:04:34;;;;;;;5.13;3.17;;;;;;;;;;5040679;28;20660;-80
2023/02/09 01:07:00;;;;;;;7.03;3.17;;;;;;;;;;5047079;28;20111;-80
2023/02/09 01:09:26;;;;;;;8.45;3.42;;;;;;;;;;5028040;28;20029;-80
2023/02/09 01:11:52;;;;;;;7.88;2.90;;;;;;;;;;5035436;28;20120;-80
2023/02/09 01:14:18;;;;;;;5.05;2.88;;;;;;;;;;5031787;28;20101;-80
2023/02/09 01:16:44;;;;;;;6.60;2.75;;;;;;;;;;5038772;28;20513;-80
2023/02/09 01:19:12;;;;;;;8.52;3.15;;;;;;;;;;5033649;28;20037;-80
2023/02/09 01:21:38;;;;;;;5.53;3.00;;;;;;;;;;5033972;28;20021;-80
2023/02/09 01:24:04;;;;;;;6.85;3.28;;;;;;;;;;5034690;28;20033;-79
2023/02/09 01:26:30;;;;;;;5.65;2.72;;;;;;;;;;5037937;28;20032;-80
2023/02/09 01:28:56;;;;;;;6.18;3.15;;;;;;;;;;5044404;28;20043;-80
2023/02/09 01:31:33;;;;;;;5.38;3.22;;;;;;;;;;5045391;28;20056;-80
2023/02/09 01:34:00;;;;;;;5.43;2.60;;;;;;;;;;5033068;28;20419;-80
2023/02/09 01:36:26;;;;;;;5.72;2.90;;;;;;;;;;5038486;28;20029;-80
2023/02/09 01:38:53;;;;;;;5.38;2.80;;;;;;;;;;5028689;28;20037;-79
2023/02/09 01:41:19;;;;;;;4.65;2.50;;;;;;;;;;5019605;28;20051;-79
2023/02/09 01:43:52;;;;;;;6.72;3.00;;;;;;;;;;5020460;28;20053;-79
2023/02/09 01:46:18;;;;;;;6.25;3.08;;;;;;;;;;5029683;28;20026;-80
2023/02/09 01:48:44;;;;;;;5.25;2.83;;;;;;;;;;5037801;28;20036;-80
2023/02/09 01:51:11;;;;;;;4.75;2.65;;;;;;;;;;5052976;28;20031;-80
2023/02/09 01:53:37;;;;;;;6.88;2.80;;;;;;;;;;5032496;28;20077;-80
2023/02/09 01:56:07;;;;;;;4.18;2.47;;;;;;;;;;5044760;28;20395;-80
2023/02/09 01:58:34;;;;;;;5.57;2.80;;;;;;;;;;5041732;28;20037;-80
2023/02/09 02:01:00;;;;;;;5.32;3.10;;;;;;;;;;5044233;28;20086;-80
2023/02/09 02:03:27;;;;;;;4.47;2.85;;;;;;;;;;5044711;28;20057;-80
2023/02/09 02:05:56;;;;;;;6.25;2.75;;;;;;;;;;5037068;28;20036;-80
2023/02/09 02:08:31;;;;;;;6.10;3.22;;;;;;;;;;5037338;28;20030;-80
2023/02/09 02:10:57;;;;;;;6.82;2.95;;;;;;;;;;5041069;28;20519;-80
2023/02/09 02:13:23;;;;;;;6.63;2.67;;;;;;;;;;5029420;28;20025;-80
2023/02/09 02:15:59;;;;;;;4.18;2.72;;;;;;;;;;5040429;28;20026;-80
2023/02/09 02:18:25;;;;;;;4.35;2.67;;;;;;;;;;5039685;28;20022;-79
2023/02/09 02:21:09;;;;;;;6.22;3.13;;;;;;;;;;5012964;28;20033;-80
2023/02/09 02:23:47;;;;;;;5.38;2.70;;;;;;;;;;5043963;28;20125;-80
2023/02/09 02:26:22;;;;;;;5.95;3.50;;;;;;;;;;5038350;28;20028;-80
2023/02/09 02:29:12;;;;;;;4.75;2.50;;;;;;;;;;5042937;28;20477;-80
2023/02/09 02:31:57;;;;;;;4.75;2.70;;;;;;;;;;5028665;28;20036;-80
2023/02/09 02:34:30;;;;;;;3.60;2.25;;;;;;;;;;5040363;28;20021;-80
2023/02/09 02:37:06;;;;;;;4.90;2.97;;;;;;;;;;5041054;28;20794;-80
2023/02/09 02:39:35;;;;;;;7.55;2.60;;;;;;;;;;5033177;28;20032;-79
2023/02/09 02:45:04;;;;;;;5.82;2.80;;;;;;;;;;5041600;28;20540;-79
2023/02/09 02:47:32;;;;;;;7.18;2.67;;;;;;;;;;5041382;28;20041;-80
2023/02/09 02:50:03;;;;;;;6.18;3.30;;;;;;;;;;5029504;28;20022;-80
2023/02/09 02:52:29;;;;;;;4.38;2.30;;;;;;;;;;5028993;28;20051;-80
2023/02/09 02:55:04;;;;;;;4.85;2.58;;;;;;;;;;5034722;28;20465;-80
2023/02/09 02:57:32;;;;;;;5.53;2.85;;;;;;;;;;5034325;28;20408;-80
2023/02/09 03:00:00;;;;;;;5.82;2.85;;;;;;;;;;5033237;28;20037;-80
2023/02/09 03:02:30;;;;;;;4.47;2.67;;;;;;;;;;5033411;28;20230;-80
2023/02/09 03:04:58;;;;;;;6.25;2.80;;;;;;;;;;5050932;28;20053;-80
2023/02/09 03:07:24;;;;;;;5.68;2.38;;;;;;;;;;5029943;28;20516;-80
2023/02/09 03:09:51;;;;;;;3.63;2.22;;;;;;;;;;5036417;28;20049;-80
2023/02/09 03:12:23;;;;;;;5.38;2.55;;;;;;;;;;5042046;28;20114;-80
2023/02/09 03:15:08;;;;;;;6.03;2.70;;;;;;;;;;5040939;28;20029;-80
2023/02/09 03:17:44;;;;;;;5.57;2.60;;;;;;;;;;5040954;28;20021;-80
2023/02/09 03:20:14;;;;;;;5.97;2.60;;;;;;;;;;5038268;28;20557;-80
2023/02/09 03:22:42;;;;;;;4.80;2.60;;;;;;;;;;5034083;28;20037;-80
2023/02/09 03:25:23;;;;;;;4.40;2.47;;;;;;;;;;5030063;28;20120;-80
2023/02/09 03:27:55;;;;;;;6.38;2.65;;;;;;;;;;5029697;28;20061;-79
2023/02/09 03:30:22;;;;;;;3.83;2.30;;;;;;;;;;5030610;28;20452;-79
2023/02/09 03:32:48;;;;;;;5.55;2.42;;;;;;;;;;5036401;28;20038;-80
2023/02/09 03:35:15;;;;;;;4.45;2.58;;;;;;;;;;5040239;28;20090;-80
2023/02/09 03:37:41;;;;;;;3.72;1.75;;;;;;;;;;5042711;28;20032;-80
2023/02/09 03:40:08;;;;;;;6.80;2.67;;;;;;;;;;5049922;28;20029;-80
2023/02/09 03:42:34;;;;;;;6.13;2.83;;;;;;;;;;5048849;28;20091;-80
2023/02/09 03:45:00;;;;;;;4.55;2.60;;;;;;;;;;5040355;28;20112;-79
2023/02/09 03:47:26;;;;;;;3.88;2.30;;;;;;;;;;5037794;28;20514;-80
2023/02/09 03:49:52;;;;;;;5.22;2.45;;;;;;;;;;5035357;28;20029;-81
2023/02/09 03:52:18;;;;;;;4.65;2.28;;;;;;;;;;5038641;28;20093;-80
2023/02/09 03:54:44;;;;;;;4.38;2.45;;;;;;;;;;5041948;28;20025;-80
2023/02/09 03:57:10;;;;;;;3.53;2.42;;;;;;;;;;5027436;28;20037;-80
2023/02/09 03:59:39;;;;;;;4.22;2.25;;;;;;;;;;5040753;28;20032;-80
2023/02/09 04:02:06;;;;;;;5.20;2.70;;;;;;;;;;5035119;28;20389;-81
2023/02/09 04:04:32;;;;;;;4.28;2.20;;;;;;;;;;5028787;28;20029;-81
2023/02/09 04:06:58;;;;;;;5.25;2.13;;;;;;;;;;5029229;28;20029;-81
2023/02/09 04:09:24;;;;;;;4.03;2.10;;;;;;;;;;5033982;28;20116;-80
2023/02/09 04:11:50;;;;;;;4.03;2.25;;;;;;;;;;5038540;28;20175;-80
2023/02/09 04:14:16;;;;;;;4.78;2.20;;;;;;;;;;5038214;28;20056;-81
2023/02/09 04:16:42;;;;;;;4.80;2.40;;;;;;;;;;5030535;28;20155;-82
2023/02/09 04:19:09;;;;;;;5.05;2.25;;;;;;;;;;5043136;28;20031;-81
2023/02/09 04:21:36;;;;;;;5.22;2.10;;;;;;;;;;5028704;28;20033;-79
2023/02/09 04:24:02;;;;;;;4.18;2.10;;;;;;;;;;5028580;28;20091;-79
2023/02/09 04:26:28;;;;;;;3.85;2.33;;;;;;;;;;5037058;28;20116;-81
2023/02/09 04:28:53;;;;;;;5.82;2.38;;;;;;;;;;5038953;28;20772;-81
2023/02/09 04:31:19;;;;;;;5.63;2.25;;;;;;;;;;5033627;28;20021;-80
2023/02/09 04:33:45;;;;;;;6.05;2.50;;;;;;;;;;5036280;28;20401;-81
2023/02/09 04:36:13;;;;;;;3.95;1.88;;;;;;;;;;5039126;28;20031;-82
2023/02/09 04:38:39;;;;;;;4.32;2.17;;;;;;;;;;5039471;28;20032;-81
2023/02/09 04:41:05;;;;;;;4.93;2.53;;;;;;;;;;5028357;28;20057;-82
2023/02/09 04:43:31;;;;;;;4.75;2.47;;;;;;;;;;5029722;28;20158;-81
2023/02/09 04:45:57;;;;;;;4.72;2.42;;;;;;;;;;5035891;28;20762;-82
2023/02/09 04:48:24;;;;;;;3.83;2.08;;;;;;;;;;5028303;28;20021;-82
2023/02/09 04:50:50;;;;;;;2.70;1.98;;;;;;;;;;5040866;28;20044;-80
2023/02/09 04:53:16;;;;;;;3.78;2.40;;;;;;;;;;5041074;28;20100;-80
2023/02/09 04:55:43;;;;;;;3.50;2.08;;;;;;;;;;5033782;28;20112;-82
2023/02/09 05:00:56;;;;;;;3.75;2.30;;;;;;;;;;5028064;28;20150;-80
2023/02/09 05:03:22;;;;;;;3.25;2.05;;;;;;;;;;5043862;28;20025;-79
2023/02/09 05:05:48;;;;;;;3.00;1.88;;;;;;;;;;5033286;28;20028;-79
2023/02/09 05:08:14;;;;;;;5.20;3.22;;;;;;;;;;5034129;28;20021;-79
2023/02/09 05:10:40;;;;;;;4.43;2.33;;;;;;;;;;5043920;28;20362;-79
2023/02/09 05:13:06;;;;;;;3.05;2.15;;;;;;;;;;5040403;28;20396;-80
2023/02/09 05:15:32;;;;;;;4.22;2.45;;;;;;;;;;5040885;28;20025;-81
2023/02/09 05:17:58;;;;;;;5.72;2.40;;;;;;;;;;5047149;28;20033;-81
2023/02/09 05:20:24;;;;;;;3.47;2.17;;;;;;;;;;5041113;28;20032;-81
2023/02/09 05:22:50;;;;;;;3.47;2.13;;;;;;;;;;5042150;28;20032;-80
2023/02/09 05:25:16;;;;;;;4.53;2.20;;;;;;;;;;5035067;28;20028;-80
2023/02/09 05:27:42;;;;;;;3.40;1.75;;;;;;;;;;5034694;28;20048;-80
2023/02/09 05:30:08;;;;;;;4.68;2.38;;;;;;;;;;5034733;28;20021;-80
2023/02/09 05:32:34;;;;;;;5.45;2.38;;;;;;;;;;5043036;28;20021;-80
2023/02/09 05:35:00;;;;;;;5.63;2.85;;;;;;;;;;5044223;28;20084;-80
2023/02/09 05:37:26;;;;;;;7.47;2.35;;;;;;;;;;5036934;28;20467;-81
2023/02/09 05:39:52;;;;;;;4.60;2.30;;;;;;;;;;5038478;28;20032;-79
2023/02/09 05:42:21;;;;;;;5.13;2.50;;;;;;;;;;5029719;28;20090;-83
2023/02/09 05:44:51;;;;;;;4.22;2.20;;;;;;;;;;5035881;28;20488;-83
2023/02/09 05:47:18;;;;;;;4.13;2.28;;;;;;;;;;5033022;28;20060;-83
2023/02/09 05:49:44;;;;;;;4.70;2.17;;;;;;;;;;5031658;28;20030;-84
2023/02/09 05:52:11;;;;;;;4.70;2.25;;;;;;;;;;5032947;28;20107;-78
2023/02/09 05:54:37;;;;;;;3.85;2.22;;;;;;;;;;5041291;28;20130;-77
2023/02/09 05:57:04;;;;;;;4.78;2.85;;;;;;;;;;5032240;28;20041;-77
2023/02/09 05:59:30;;;;;;;4.80;2.72;;;;;;;;;;5037730;28;20037;-77
2023/02/09 06:01:56;;;;;;;4.65;2.13;;;;;;;;;;5046197;28;20493;-79
2023/02/09 06:04:22;;;;;;;5.47;2.63;;;;;;;;;;5046184;28;20025;-79
2023/02/09 06:06:48;;;;;;;4.47;2.30;;;;;;;;;;5043940;28;20048;-76
2023/02/09 06:09:14;;;;;;;3.70;2.47;;;;;;;;;;5037908;28;20119;-77
2023/02/09 06:11:40;;;;;;;5.25;2.50;;;;;;;;;;5046131;28;20039;-77
2023/02/09 06:14:06;;;;;;;3.35;2.05;;;;;;;;;;5038414;28;20036;-77
2023/02/09 06:16:32;;;;;;;3.20;2.17;;;;;;;;;;5029767;28;20052;-77
2023/02/09 06:18:58;;;;;;;4.82;2.42;;;;;;;;;;5045902;28;20090;-77
2023/02/09 06:21:25;;;;;;;4.03;2.38;;;;;;;;;;5047539;28;20037;-77
2023/02/09 06:23:51;;;;;;;6.03;2.90;;;;;;;;;;5034734;28;20127;-76
2023/02/09 06:26:17;;;;;;;4.53;2.33;;;;;;;;;;5047496;28;20496;-77
2023/02/09 06:28:43;;;;;;;5.25;2.00;;;;;;;;;;5045325;28;20021;-77
2023/02/09 06:31:10;;;;;;;5.65;2.42;;;;;;;;;;5042211;28;20389;-77
2023/02/09 06:33:36;;;;;;;4.05;2.35;;;;;;;;;;5036299;28;20108;-77
2023/02/09 06:36:03;;;;;;;5.38;2.47;;;;;;;;;;5033692;28;20366;-77
2023/02/09 06:38:33;;;;;;;4.05;2.53;;;;;;;;;;5030864;28;20044;-83
2023/02/09 06:40:59;;;;;;;3.90;2.03;;;;;;;;;;5043059;28;20130;-83
2023/02/09 06:43:25;;;;;;;5.97;2.67;;;;;;;;;;5036052;28;20381;-83
2023/02/09 06:45:51;;;;;;;3.65;2.17;;;;;;;;;;5034566;28;20072;-85
2023/02/09 06:48:17;;;;;;;5.32;1.90;;;;;;;;;;5042767;28;20508;-83
2023/02/09 06:50:43;;;;;;;6.45;2.58;;;;;;;;;;5047217;28;20013;-76
2023/02/09 06:53:09;;;;;;;6.18;2.38;;;;;;;;;;5050402;28;20051;-78
2023/02/09 06:55:35;;;;;;;3.60;2.20;;;;;;;;;;5030619;28;20382;-78
2023/02/09 06:58:01;;;;;;;3.85;2.08;;;;;;;;;;5038612;28;20033;-77
2023/02/09 07:00:27;;;;;;;4.85;2.33;;;;;;;;;;5050646;28;20033;-78
2023/02/09 07:02:53;;;;;;;3.63;2.40;;;;;;;;;;5036505;28;20120;-78
2023/02/09 07:05:19;;;;;;;2.75;2.03;;;;;;;;;;5031420;28;20120;-79
2023/02/09 07:07:46;;;;;;;4.85;2.40;;;;;;;;;;5040335;28;20111;-80
2023/02/09 07:10:12;;;;;;;4.90;2.35;;;;;;;;;;5032067;28;20442;-79
2023/02/09 07:12:44;;;;;;;4.03;1.92;;;;;;;;;;5030505;28;20374;-80
2023/02/09 07:15:10;;;;;;;;;;;;;;;;;;5030974;28;20587;-80
2023/02/09 07:17:36;;;;;;;4.35;2.42;;;;;;;;;;5029872;28;20012;-76
2023/02/09 07:20:03;;;;;;;3.08;2.10;;;;;;;;;;5031459;28;20038;-74
2023/02/09 07:22:29;;;;;;;5.03;2.15;;;;;;;;;;5047175;28;20067;-78
2023/02/09 07:24:55;;;;;;;3.85;2.40;;;;;;;;;;5029254;28;20059;-79
2023/02/09 07:27:21;;;;;;;3.92;2.20;;;;;;;;;;5034034;28;20477;-79
2023/02/09 07:29:47;;;;;;;5.03;2.47;;;;;;;;;;5050315;28;20029;-79
2023/02/09 07:32:13;;;;;;;4.38;2.10;;;;;;;;;;5035238;28;20017;-79
2023/02/09 07:34:39;;;;;;;4.45;2.42;;;;;;;;;;5031520;28;20025;-79
2023/02/09 07:37:05;;;;;;;5.03;2.50;;;;;;;;;;5041062;28;20121;-79
2023/02/09 07:39:31;;;;;;;3.83;1.90;;;;;;;;;;5034979;28;20074;-79
2023/02/09 07:41:57;;;;;;;5.78;2.47;;;;;;;;;;5034907;28;20140;-80
2023/02/09 07:44:24;;;;;;;4.55;2.58;;;;;;;;;;5043237;28;20043;-80
2023/02/09 07:46:50;;;;;;;5.65;2.53;;;;;;;;;;5042985;28;20501;-81
2023/02/09 07:49:16;;;;;;;4.35;2.28;;;;;;;;;;5038498;28;20032;-79
2023/02/09 07:51:42;;;;;;;6.28;2.60;;;;;;;;;;5038887;28;20059;-79
2023/02/09 07:54:12;;;;;;;3.50;2.17;;;;;;;;;;5042658;28;20017;-79
2023/02/09 07:56:38;;;;;;;6.45;2.53;;;;;;;;;;5049774;28;20553;-78
2023/02/09 07:59:05;;;;;;;3.00;2.03;;;;;;;;;;5048577;28;20091;-77
2023/02/09 08:01:31;;;;;;;5.15;2.38;;;;;;;;;;5049424;28;20238;-78
2023/02/09 08:03:57;;;;;;;7.25;2.58;;;;;;;;;;5047622;28;20029;-78
2023/02/09 08:06:29;;;;;;;4.00;2.25;;;;;;;;;;5042395;28;20079;-78
2023/02/09 08:08:55;;;;;;;3.70;2.17;;;;;;;;;;5042316;28;20021;-78
2023/02/09 08:11:24;;;;;;;5.68;2.85;;;;;;;;;;5029840;28;20036;-79
2023/02/09 08:14:01;;;;;;;4.82;2.80;;;;;;;;;;5029048;28;20539;-80
2023/02/09 08:16:29;;;;;;;3.45;2.08;;;;;;;;;;5034787;28;20382;-79
2023/02/09 08:19:00;;;;;;;5.20;2.30;;;;;;;;;;5049006;28;20078;-78
2023/02/09 08:21:28;;;;;;;3.10;2.10;;;;;;;;;;5049076;28;20029;-78
2023/02/09 08:23:55;;;;;;;5.90;2.92;;;;;;;;;;5038082;28;20321;-77
2023/02/09 08:26:21;;;;;;;5.45;2.67;;;;;;;;;;5035691;28;20493;-77
2023/02/09 08:28:47;;;;;;;3.10;2.22;;;;;;;;;;5029043;28;20037;-76
2023/02/09 08:31:14;;;;;;;4.63;2.75;;;;;;;;;;5030788;28;21925;-77
2023/02/09 08:33:43;;;;;;;5.00;2.50;;;;;;;;;;5038371;28;20049;-77
2023/02/09 08:36:10;;;;;;;7.03;3.15;;;;;;;;;;5039283;28;20039;-77
2023/02/09 08:38:35;;;;;;;5.38;2.58;;;;;;;;;;5039767;28;20430;-77
2023/02/09 08:41:06;;;;;;;4.53;2.33;;;;;;;;;;5031095;28;20033;-77
2023/02/09 08:43:32;;;;;;;6.03;2.90;;;;;;;;;;5041539;28;20033;-77
2023/02/09 08:46:05;;;;;;;6.28;2.88;;;;;;;;;;5027958;28;20578;-77
2023/02/09 08:48:32;;;;;;;5.28;2.78;;;;;;;;;;5028651;28;20033;-77
2023/02/09 08:51:01;;;;;;;6.25;2.67;;;;;;;;;;5042486;28;20029;-77
2023/02/09 08:53:27;;;;;;;8.38;3.00;;;;;;;;;;5044126;28;20020;-87
2023/02/09 08:55:53;;;;;;;4.63;2.53;;;;;;;;;;5040468;28;20120;-78
2023/02/09 08:58:27;;;;;;;4.32;2.80;;;;;;;;;;5029057;28;20026;-76
2023/02/09 09:00:55;;;;;;;6.00;2.85;;;;;;;;;;5035970;28;20440;-77
2023/02/09 09:03:21;;;;;;;5.13;2.67;;;;;;;;;;5027519;28;20348;-77
2023/02/09 09:05:47;;;;;;;4.35;2.35;;;;;;;;;;5028492;28;20029;-79
2023/02/09 09:08:13;;;;;;;4.95;2.55;;;;;;;;;;5029791;28;20393;-80
2023/02/09 09:10:39;;;;;;;5.22;2.95;;;;;;;;;;5027607;28;20114;-80
2023/02/09 09:13:05;;;;;;;7.57;2.83;;;;;;;;;;5039474;28;20029;-76
2023/02/09 09:15:31;;;;;;;4.93;2.90;;;;;;;;;;5027415;28;20041;-77
2023/02/09 09:17:57;;;;;;;5.32;2.90;;;;;;;;;;5028302;28;20037;-79
2023/02/09 09:20:23;;;;;;;6.05;2.70;;;;;;;;;;5028848;28;20029;-76
2023/02/09 09:22:49;;;;;;;5.07;2.53;;;;;;;;;;5027638;28;20176;-81
2023/02/09 09:25:15;;;;;;;5.20;2.30;;;;;;;;;;5032921;28;20025;-83
2023/02/09 09:27:41;;;;;;;3.75;2.60;;;;;;;;;;5040628;28;20037;-84
2023/02/09 09:30:07;;;;;;;4.13;2.10;;;;;;;;;;5041005;28;20033;-82
2023/02/09 09:32:33;;;;;;;4.35;2.63;;;;;;;;;;5028009;28;20607;-82
2023/02/09 09:34:59;;;;;;;3.35;2.33;;;;;;;;;;5037653;28;20111;-82
2023/02/09 09:37:25;;;;;;;5.80;2.42;;;;;;;;;;5037330;28;20036;-75
2023/02/09 09:39:52;;;;;;;4.10;2.50;;;;;;;;;;5027665;28;20041;-75
2023/02/09 09:42:25;;;;;;;4.22;2.33;;;;;;;;;;5032464;28;20045;-75
2023/02/09 09:44:51;;;;;;;9.45;2.45;;;;;;;;;;5027191;28;20037;-80
2023/02/09 09:47:20;;;;;;;4.53;2.60;;;;;;;;;;5031963;28;20026;-76
2023/02/09 09:49:46;;;;;;;5.60;2.88;;;;;;;;;;5027110;28;20051;-76
2023/02/09 09:52:17;;;;;;;5.32;2.40;;;;;;;;;;5028335;28;20051;-75
2023/02/09 09:54:44;;;;;;;4.22;2.30;;;;;;;;;;5027767;28;20473;-78
2023/02/09 09:57:39;;;;;;;3.92;2.15;;;;;;;;;;5037672;28;20041;-78
2023/02/09 10:00:11;;;;;;;4.15;2.28;;;;;;;;;;5014651;28;20037;-86
2023/02/09 10:02:38;;;;;;;5.78;2.60;;;;;;;;;;5027168;28;20494;-79
2023/02/09 10:05:21;;;;;;;3.10;2.08;;;;;;;;;;5027568;28;20116;-79
2023/02/09 10:07:50;;;;;;;3.97;2.50;;;;;;;;;;5027594;28;20030;-78
2023/02/09 10:10:21;;;;;;;4.93;2.65;;;;;;;;;;5028296;28;20036;-80
2023/02/09 10:12:48;;;;;;;7.45;2.67;;;;;;;;;;5027435;28;20040;-79
2023/02/09 10:15:23;;;;;;;6.05;2.72;;;;;;;;;;5031188;28;20040;-78
2023/02/09 10:17:49;;;;;;;4.32;2.28;;;;;;;;;;5029106;28;20041;-79
2023/02/09 10:20:15;;;;;;;9.20;3.00;;;;;;;;;;5031435;28;20034;-80
2023/02/09 10:22:44;;;;;;;5.03;2.42;;;;;;;;;;5043338;28;20033;-80
2023/02/09 10:25:29;;;;;;;6.20;2.63;;;;;;;;;;5030286;28;20057;-79
2023/02/09 10:27:54;;;;;;;5.65;3.00;;;;;;;;;;5023925;28;20593;-79
2023/02/09 10:30:26;;;;;;;4.25;2.30;;;;;;;;;;5023602;28;20482;-78
2023/02/09 10:32:52;;;;;;;5.57;2.55;;;;;;;;;;5026569;28;20034;-79
2023/02/09 10:35:25;;;;;;;5.15;2.40;;;;;;;;;;5027774;28;20037;-79
2023/02/09 10:37:55;;;;;;;5.43;2.45;;;;;;;;;;5029475;28;20414;-79
2023/02/09 10:40:41;;;;;;;4.00;2.40;;;;;;;;;;5033241;28;20033;-78
2023/02/09 10:43:18;;;;;;;6.55;2.85;;;;;;;;;;5035289;28;20053;-79
2023/02/09 10:45:45;;;;;;;3.97;2.70;;;;;;;;;;5043810;28;20570;-79
2023/02/09 10:48:11;;;;;;;3.30;2.08;;;;;;;;;;5045224;28;20049;-78
2023/02/09 10:50:56;;;;;;;4.15;2.28;;;;;;;;;;5031559;28;20033;-78
2023/02/09 10:53:24;;;;;;;4.63;2.40;;;;;;;;;;5037230;28;20388;-79
2023/02/09 10:55:50;;;;;;;5.30;2.15;;;;;;;;;;5033337;28;20029;-79
2023/02/09 10:58:20;;;;;;;5.18;2.40;;;;;;;;;;5027727;28;20137;-79
2023/02/09 11:00:48;;;;;;;5.70;2.33;;;;;;;;;;5034707;28;20033;-84
2023/02/09 11:03:24;;;;;;;3.47;2.22;;;;;;;;;;5038990;28;20129;-83
2023/02/09 11:05:57;;;;;;;4.10;2.45;;;;;;;;;;5026031;28;20497;-84
2023/02/09 11:08:24;;;;;;;4.43;2.38;;;;;;;;;;5030190;28;20045;-83
2023/02/09 11:11:03;;;;;;;4.30;2.47;;;;;;;;;;5040610;28;20481;-82
2023/02/09 11:13:29;;;;;;;3.17;1.90;;;;;;;;;;5045344;28;20070;-82
2023/02/09 11:16:10;;;;;;;4.97;2.40;;;;;;;;;;5041775;28;20029;-82
2023/02/09 11:18:37;;;;;;;5.53;2.17;;;;;;;;;;5036815;28;20025;-82
2023/02/09 11:21:11;;;;;;;4.60;2.28;;;;;;;;;;5038513;28;20017;-83
2023/02/09 11:24:02;;;;;;;5.38;2.38;;;;;;;;;;5045734;28;20435;-82
2023/02/09 11:26:35;;;;;;;5.75;2.60;;;;;;;;;;5045369;28;20084;-82
2023/02/09 11:29:24;;;;;;;3.53;2.28;;;;;;;;;;5029856;28;20025;-83
2023/02/09 11:32:04;;;;;;;3.15;1.90;;;;;;;;;;5032294;28;20044;-83
2023/02/09 11:34:40;;;;;;;3.42;1.92;;;;;;;;;;5029907;28;20025;-82
2023/02/09 11:37:25;;;;;;;3.40;1.90;;;;;;;;;;5046059;28;20025;-82
2023/02/09 11:39:56;;;;;;;4.35;2.17;;;;;;;;;;5049619;28;20397;-82
2023/02/09 11:42:45;;;;;;;4.20;2.00;;;;;;;;;;5042962;28;20049;-82
2023/02/09 11:45:15;;;;;;;6.68;2.13;;;;;;;;;;5040020;28;20034;-82
2023/02/09 11:47:48;;;;;;;4.63;2.10;;;;;;;;;;5049656;28;20028;-79
2023/02/09 11:50:32;;;;;;;4.13;2.03;;;;;;;;;;5049750;28;20377;-82
2023/02/09 11:53:04;;;;;;;4.05;1.88;;;;;;;;;;5049146;28;20317;-82
2023/02/09 11:55:42;;;;;;;2.85;1.60;;;;;;;;;;5031947;28;20030;-82
2023/02/09 11:58:19;;;;;;;4.32;1.80;;;;;;;;;;5029326;28;20071;-82
2023/02/09 12:00:49;;;;;;;5.65;2.20;;;;;;;;;;5029340;28;20029;-80
2023/02/09 12:03:15;;;;;;;5.20;2.28;;;;;;;;;;5047103;28;20025;-82
2023/02/09 12:05:43;;;;;;;3.33;1.90;;;;;;;;;;5037012;28;20047;-79
2023/02/09 12:08:15;;;;;;;4.03;2.15;;;;;;;;;;5046864;28;20043;-80
2023/02/09 12:10:47;;;;;;;4.07;1.90;;;;;;;;;;5049376;28;20033;-82
2023/02/09 12:13:20;;;;;;;3.10;1.92;;;;;;;;;;5031789;28;20092;-80
2023/02/09 12:15:48;;;;;;;3.13;1.73;;;;;;;;;;5029218;28;20079;-82
2023/02/09 12:18:18;;;;;;;4.28;2.05;;;;;;;;;;5036176;28;20033;-83
2023/02/09 12:20:51;;;;;;;9.13;2.03;;;;;;;;;;5040192;28;20056;-83
2023/02/09 12:23:20;;;;;;;2.90;1.95;;;;;;;;;;5032402;28;20029;-80
2023/02/09 12:25:58;;;;;;;2.90;1.98;;;;;;;;;;5028715;28;20033;-83
2023/02/09 12:28:27;;;;;;;3.88;1.58;;;;;;;;;;5028822;28;20076;-82
2023/02/09 12:30:53;;;;;;;5.05;2.80;;;;;;;;;;5034716;28;20021;-82
2023/02/09 12:33:22;;;;;;;3.28;1.80;;;;;;;;;;5038227;28;20032;-83
2023/02/09 12:36:07;;;;;;;3.72;2.13;;;;;;;;;;5044772;28;20028;-82
2023/02/09 12:38:51;;;;;;;3.17;1.85;;;;;;;;;;5048553;28;20021;-82
2023/02/09 12:41:17;;;;;;;3.17;2.00;;;;;;;;;;5037731;28;20044;-82
2023/02/09 12:43:44;;;;;;;5.18;1.98;;;;;;;;;;5036324;28;20041;-82
2023/02/09 12:46:22;;;;;;;2.97;1.80;;;;;;;;;;5044134;28;20039;-82
2023/02/09 12:48:49;;;;;;;2.85;1.58;;;;;;;;;;5048176;28;20021;-82
2023/02/09 12:51:33;;;;;;;3.92;2.45;;;;;;;;;;5046494;28;20157;-81
2023/02/09 12:53:59;;;;;;;2.85;1.63;;;;;;;;;;5043136;28;20119;-81
2023/02/09 12:56:29;;;;;;;2.95;1.80;;;;;;;;;;5040786;28;20036;-81
2023/02/09 12:59:06;;;;;;;2.67;1.80;;;;;;;;;;5043986;28;20028;-81
2023/02/09 13:01:50;;;;;;;3.85;2.40;;;;;;;;;;5046833;28;20040;-82
2023/02/09 13:04:16;;;;;;;4.00;1.80;;;;;;;;;;5028588;28;20040;-81
2023/02/09 13:06:47;;;;;;;3.28;1.60;;;;;;;;;;5027898;28;20032;-81
2023/02/09 13:09:18;;;;;;;2.53;1.70;;;;;;;;;;5034605;28;20393;-82
2023/02/09 13:11:50;;;;;;;4.38;2.22;;;;;;;;;;5045797;28;20033;-81
2023/02/09 13:14:17;;;;;;;3.15;2.05;;;;;;;;;;5030041;28;20028;-81
2023/02/09 13:16:49;;;;;;;2.92;1.85;;;;;;;;;;5032264;28;20041;-82
2023/02/09 13:19:31;;;;;;;3.00;2.10;;;;;;;;;;5028199;28;20021;-82
2023/02/09 13:21:58;;;;;;;3.47;1.95;;;;;;;;;;5027527;28;20078;-82
2023/02/09 13:24:43;;;;;;;3.00;1.63;;;;;;;;;;5043483;28;20698;-81
2023/02/09 13:27:23;;;;;;;5.25;2.10;;;;;;;;;;5031266;28;20033;-82
2023/02/09 13:29:49;;;;;;;2.38;1.75;;;;;;;;;;5027364;28;20486;-81
2023/02/09 13:32:15;;;;;;;3.50;2.00;;;;;;;;;;5032614;28;20073;-82
2023/02/09 13:34:47;;;;;;;2.80;1.80;;;;;;;;;;5044134;28;20851;-81
2023/02/09 13:37:21;;;;;;;4.70;2.13;;;;;;;;;;5036223;28;20036;-81
2023/02/09 13:39:59;;;;;;;2.65;1.73;;;;;;;;;;5027326;28;20056;-81
2023/02/09 13:42:26;;;;;;;3.00;1.70;;;;;;;;;;5035440;28;20454;-80
2023/02/09 13:44:53;;;;;;;3.45;1.98;;;;;;;;;;5027261;28;20018;-81
2023/02/09 13:47:20;;;;;;;2.85;1.75;;;;;;;;;;5029702;28;20025;-81
2023/02/09 13:50:00;;;;;;;3.35;1.85;;;;;;;;;;5027316;28;20373;-80
2023/02/09 13:52:26;;;;;;;3.05;1.55;;;;;;;;;;5027147;28;20029;-80
2023/02/09 13:54:53;;;;;;;2.92;1.95;;;;;;;;;;5043351;28;20063;-80
2023/02/09 13:57:40;;;;;;;6.55;1.73;;;;;;;;;;5043547;28;20025;-81
2023/02/09 14:00:24;;;;;;;5.32;2.35;;;;;;;;;;5044311;28;20029;-81
2023/02/09 14:02:52;;;;;;;3.67;1.92;;;;;;;;;;5041862;28;20043;-80
2023/02/09 14:05:25;;;;;;;3.38;1.60;;;;;;;;;;5029971;28;20040;-80
2023/02/09 14:07:51;;;;;;;3.70;1.98;;;;;;;;;;5032758;28;20039;-80
2023/02/09 14:10:18;;;;;;;6.82;1.77;;;;;;;;;;5026872;28;20037;-80
2023/02/09 14:13:02;;;;;;;3.42;1.67;;;;;;;;;;5027227;28;20389;-80
2023/02/09 14:18:30;;;;;;;3.95;1.75;;;;;;;;;;5026877;28;20044;-80
2023/02/09 14:21:12;;;;;;;3.47;1.40;;;;;;;;;;5039666;28;20393;-80
2023/02/09 14:23:39;;;;;;;3.35;1.80;;;;;;;;;;5042455;28;20036;-81
2023/02/09 14:26:25;;;;;;;2.42;1.70;;;;;;;;;;5045957;28;20029;-81
2023/02/09 14:29:13;;;;;;;3.35;1.90;;;;;;;;;;5044683;28;20488;-80
2023/02/09 14:31:46;;;;;;;3.58;2.10;;;;;;;;;;5044900;28;20089;-81
2023/02/09 14:34:59;;;;;;;3.17;1.92;;;;;;;;;;5043516;28;20477;-80
2023/02/09 14:37:28;;;;;;;2.15;1.67;;;;;;;;;;4999247;28;20065;-81
2023/02/09 14:39:54;;;;;;;2.08;1.17;;;;;;;;;;5041957;28;20021;-81
2023/02/09 14:42:20;;;;;;;3.65;2.10;;;;;;;;;;5035155;28;20602;-80
2023/02/09 14:44:57;;;;;;;3.25;1.77;;;;;;;;;;5027060;28;20048;-81
2023/02/09 14:47:26;;;;;;;2.50;1.50;;;;;;;;;;5031383;28;20123;-83
2023/02/09 14:49:52;;;;;;;2.55;1.70;;;;;;;;;;5042971;28;20036;-81
2023/02/09 14:52:22;;;;;;;5.28;1.95;;;;;;;;;;5038953;28;20029;-82
2023/02/09 14:54:49;;;;;;;2.78;1.60;;;;;;;;;;5030802;28;20027;-81
2023/02/09 14:57:15;;;;;;;2.58;1.58;;;;;;;;;;5038142;28;20044;-77
2023/02/09 14:59:41;;;;;;;3.25;1.63;;;;;;;;;;5030962;28;20037;-76
2023/02/09 15:02:15;;;;;;;3.95;2.00;;;;;;;;;;5048127;28;20163;-80
2023/02/09 15:04:41;;;;;;;3.13;1.42;;;;;;;;;;5033144;28;20056;-76